sensor_id;sensor_type;location;lat;lon;timestamp;pressure;altitude;pressure_sealevel;temperature;humidity
76766;BME280;65707;52.362;6.588;2023-09-07T00:00:30;102028.09;;;21.65;69.49
76766;BME280;65707;52.362;6.588;2023-09-07T00:02:59;102028.28;;;21.70;69.09
76766;BME280;65707;52.362;6.588;2023-09-07T00:05:25;102040.50;;;21.81;68.47
76766;BME280;65707;52.362;6.588;2023-09-07T00:07:52;102037.31;;;21.90;67.87
76766;BME280;65707;52.362;6.588;2023-09-07T00:10:22;102020.53;;;21.87;67.72
76766;BME280;65707;52.362;6.588;2023-09-07T00:12:52;102031.03;;;21.70;68.37
76766;BME280;65707;52.362;6.588;2023-09-07T00:15:19;102020.09;;;21.57;68.76
76766;BME280;65707;52.362;6.588;2023-09-07T00:17:46;102022.00;;;21.37;69.69
76766;BME280;65707;52.362;6.588;2023-09-07T00:20:14;102022.66;;;21.39;69.20
76766;BME280;65707;52.362;6.588;2023-09-07T00:22:41;102016.75;;;21.48;69.14
76766;BME280;65707;52.362;6.588;2023-09-07T00:25:08;102018.84;;;21.40;69.65
76766;BME280;65707;52.362;6.588;2023-09-07T00:27:35;102020.56;;;21.34;69.68
76766;BME280;65707;52.362;6.588;2023-09-07T00:30:03;102021.78;;;21.32;69.80
76766;BME280;65707;52.362;6.588;2023-09-07T00:32:32;102015.50;;;21.31;69.58
76766;BME280;65707;52.362;6.588;2023-09-07T00:34:59;102017.19;;;21.26;69.92
76766;BME280;65707;52.362;6.588;2023-09-07T00:37:27;102012.75;;;21.51;68.67
76766;BME280;65707;52.362;6.588;2023-09-07T00:39:54;102010.88;;;21.52;68.66
76766;BME280;65707;52.362;6.588;2023-09-07T00:42:21;102012.31;;;21.54;68.15
76766;BME280;65707;52.362;6.588;2023-09-07T00:44:48;102017.38;;;21.57;68.05
76766;BME280;65707;52.362;6.588;2023-09-07T00:47:15;102022.41;;;21.60;68.20
76766;BME280;65707;52.362;6.588;2023-09-07T00:49:42;102015.28;;;21.59;67.97
76766;BME280;65707;52.362;6.588;2023-09-07T00:52:10;102015.09;;;21.41;68.02
76766;BME280;65707;52.362;6.588;2023-09-07T00:54:38;102017.19;;;21.32;68.03
76766;BME280;65707;52.362;6.588;2023-09-07T00:57:08;102026.41;;;21.05;68.67
76766;BME280;65707;52.362;6.588;2023-09-07T00:59:36;102019.84;;;20.87;69.32
76766;BME280;65707;52.362;6.588;2023-09-07T01:02:02;102015.69;;;20.97;68.73
76766;BME280;65707;52.362;6.588;2023-09-07T01:04:31;102025.09;;;20.95;69.20
76766;BME280;65707;52.362;6.588;2023-09-07T01:07:03;102016.69;;;20.90;69.13
76766;BME280;65707;52.362;6.588;2023-09-07T01:09:40;102023.44;;;20.94;69.09
76766;BME280;65707;52.362;6.588;2023-09-07T01:12:14;102012.03;;;20.71;69.74
76766;BME280;65707;52.362;6.588;2023-09-07T01:14:41;102015.22;;;20.87;69.38
76766;BME280;65707;52.362;6.588;2023-09-07T01:17:09;102017.09;;;20.80;69.22
76766;BME280;65707;52.362;6.588;2023-09-07T01:19:37;102001.97;;;20.71;69.35
76766;BME280;65707;52.362;6.588;2023-09-07T01:22:06;102009.06;;;20.53;70.19
76766;BME280;65707;52.362;6.588;2023-09-07T01:24:34;102004.84;;;20.44;70.44
76766;BME280;65707;52.362;6.588;2023-09-07T01:27:05;102008.16;;;20.46;70.27
76766;BME280;65707;52.362;6.588;2023-09-07T01:29:32;102010.06;;;20.39;71.03
76766;BME280;65707;52.362;6.588;2023-09-07T01:31:59;102012.78;;;20.39;70.95
76766;BME280;65707;52.362;6.588;2023-09-07T01:34:26;102005.81;;;20.36;70.39
76766;BME280;65707;52.362;6.588;2023-09-07T01:36:55;102004.38;;;20.40;70.32
76766;BME280;65707;52.362;6.588;2023-09-07T01:39:23;102011.44;;;20.28;70.54
76766;BME280;65707;52.362;6.588;2023-09-07T01:41:51;102007.88;;;20.21;70.74
76766;BME280;65707;52.362;6.588;2023-09-07T01:44:18;102013.97;;;20.23;70.63
76766;BME280;65707;52.362;6.588;2023-09-07T01:46:44;102007.63;;;20.16;70.78
76766;BME280;65707;52.362;6.588;2023-09-07T01:49:20;102010.66;;;20.00;71.40
76766;BME280;65707;52.362;6.588;2023-09-07T01:51:51;102003.78;;;20.04;71.83
76766;BME280;65707;52.362;6.588;2023-09-07T01:54:18;102006.91;;;20.01;71.68
76766;BME280;65707;52.362;6.588;2023-09-07T01:56:48;102007.47;;;19.90;72.21
76766;BME280;65707;52.362;6.588;2023-09-07T01:59:15;102009.16;;;19.91;72.36
76766;BME280;65707;52.362;6.588;2023-09-07T02:01:42;102004.16;;;19.94;72.03
76766;BME280;65707;52.362;6.588;2023-09-07T02:04:08;102008.59;;;20.02;71.41
76766;BME280;65707;52.362;6.588;2023-09-07T02:06:35;102010.16;;;19.83;72.14
76766;BME280;65707;52.362;6.588;2023-09-07T02:09:02;102002.03;;;19.90;72.11
76766;BME280;65707;52.362;6.588;2023-09-07T02:11:30;101994.84;;;19.82;72.18
76766;BME280;65707;52.362;6.588;2023-09-07T02:13:58;102003.84;;;19.83;72.26
76766;BME280;65707;52.362;6.588;2023-09-07T02:16:25;102005.38;;;19.85;72.26
76766;BME280;65707;52.362;6.588;2023-09-07T02:19:00;102011.19;;;19.82;72.16
76766;BME280;65707;52.362;6.588;2023-09-07T02:21:28;101998.38;;;19.76;71.79
76766;BME280;65707;52.362;6.588;2023-09-07T02:23:55;102017.47;;;19.83;71.85
76766;BME280;65707;52.362;6.588;2023-09-07T02:26:22;102004.88;;;19.75;71.57
76766;BME280;65707;52.362;6.588;2023-09-07T02:28:49;102001.09;;;19.76;71.75
76766;BME280;65707;52.362;6.588;2023-09-07T02:31:17;102003.56;;;19.65;71.80
76766;BME280;65707;52.362;6.588;2023-09-07T02:33:51;102006.13;;;19.73;71.57
76766;BME280;65707;52.362;6.588;2023-09-07T02:36:17;102003.16;;;19.68;71.85
76766;BME280;65707;52.362;6.588;2023-09-07T02:38:44;101996.66;;;19.69;71.63
76766;BME280;65707;52.362;6.588;2023-09-07T02:41:11;101999.38;;;19.69;71.43
76766;BME280;65707;52.362;6.588;2023-09-07T02:43:38;102006.75;;;19.75;71.45
76766;BME280;65707;52.362;6.588;2023-09-07T02:46:04;102001.25;;;19.68;71.59
76766;BME280;65707;52.362;6.588;2023-09-07T02:48:33;102001.84;;;19.64;71.38
76766;BME280;65707;52.362;6.588;2023-09-07T02:51:00;102001.38;;;19.54;71.68
76766;BME280;65707;52.362;6.588;2023-09-07T02:53:26;101998.41;;;19.49;71.77
76766;BME280;65707;52.362;6.588;2023-09-07T02:55:53;102005.47;;;19.43;72.12
76766;BME280;65707;52.362;6.588;2023-09-07T02:58:21;102002.13;;;19.41;72.25
76766;BME280;65707;52.362;6.588;2023-09-07T03:00:48;102006.50;;;19.42;72.55
76766;BME280;65707;52.362;6.588;2023-09-07T03:03:15;102000.47;;;19.47;71.55
76766;BME280;65707;52.362;6.588;2023-09-07T03:05:46;101995.56;;;19.36;71.53
76766;BME280;65707;52.362;6.588;2023-09-07T03:08:14;101994.16;;;19.19;72.52
76766;BME280;65707;52.362;6.588;2023-09-07T03:10:42;101993.63;;;19.09;73.18
76766;BME280;65707;52.362;6.588;2023-09-07T03:13:09;101997.91;;;19.18;72.58
76766;BME280;65707;52.362;6.588;2023-09-07T03:15:36;102007.81;;;19.25;72.67
76766;BME280;65707;52.362;6.588;2023-09-07T03:18:03;102000.38;;;19.13;72.52
76766;BME280;65707;52.362;6.588;2023-09-07T03:20:32;102008.16;;;19.16;72.40
76766;BME280;65707;52.362;6.588;2023-09-07T03:23:01;102006.91;;;19.18;72.07
76766;BME280;65707;52.362;6.588;2023-09-07T03:25:29;102002.47;;;18.90;73.19
76766;BME280;65707;52.362;6.588;2023-09-07T03:27:55;102010.38;;;18.85;72.92
76766;BME280;65707;52.362;6.588;2023-09-07T03:30:22;102018.41;;;18.93;73.46
76766;BME280;65707;52.362;6.588;2023-09-07T03:32:49;102015.00;;;18.70;74.16
76766;BME280;65707;52.362;6.588;2023-09-07T03:35:16;102007.13;;;18.75;74.14
76766;BME280;65707;52.362;6.588;2023-09-07T03:37:45;102016.63;;;18.85;73.85
76766;BME280;65707;52.362;6.588;2023-09-07T03:40:14;102017.03;;;18.82;74.09
76766;BME280;65707;52.362;6.588;2023-09-07T03:42:40;102025.06;;;18.90;73.67
76766;BME280;65707;52.362;6.588;2023-09-07T03:45:09;102020.47;;;18.91;73.45
76766;BME280;65707;52.362;6.588;2023-09-07T03:47:39;102014.09;;;18.84;73.07
76766;BME280;65707;52.362;6.588;2023-09-07T03:50:06;102021.63;;;18.82;73.47
76766;BME280;65707;52.362;6.588;2023-09-07T03:52:33;102017.34;;;18.73;73.69
76766;BME280;65707;52.362;6.588;2023-09-07T03:55:01;102021.56;;;18.75;73.93
76766;BME280;65707;52.362;6.588;2023-09-07T03:57:29;102035.16;;;18.75;74.12
76766;BME280;65707;52.362;6.588;2023-09-07T03:59:56;102023.69;;;18.80;73.85
76766;BME280;65707;52.362;6.588;2023-09-07T04:02:26;102022.91;;;18.86;73.55
76766;BME280;65707;52.362;6.588;2023-09-07T04:04:54;102027.38;;;18.72;73.94
76766;BME280;65707;52.362;6.588;2023-09-07T04:07:21;102023.63;;;18.73;73.98
76766;BME280;65707;52.362;6.588;2023-09-07T04:09:54;102023.13;;;18.84;73.62
76766;BME280;65707;52.362;6.588;2023-09-07T04:12:20;102015.94;;;18.77;73.62
76766;BME280;65707;52.362;6.588;2023-09-07T04:14:48;102001.88;;;18.73;73.50
76766;BME280;65707;52.362;6.588;2023-09-07T04:17:18;102007.56;;;18.78;73.87
76766;BME280;65707;52.362;6.588;2023-09-07T04:19:44;102017.59;;;18.78;73.69
76766;BME280;65707;52.362;6.588;2023-09-07T04:22:11;102009.72;;;18.83;73.32
76766;BME280;65707;52.362;6.588;2023-09-07T04:24:38;102010.75;;;18.82;73.30
76766;BME280;65707;52.362;6.588;2023-09-07T04:27:06;102015.34;;;18.81;73.48
76766;BME280;65707;52.362;6.588;2023-09-07T04:29:33;102009.72;;;18.83;73.06
76766;BME280;65707;52.362;6.588;2023-09-07T04:32:01;102008.63;;;18.77;72.55
76766;BME280;65707;52.362;6.588;2023-09-07T04:34:28;101991.31;;;18.64;73.06
76766;BME280;65707;52.362;6.588;2023-09-07T04:36:54;102012.28;;;18.70;73.22
76766;BME280;65707;52.362;6.588;2023-09-07T04:39:21;102003.94;;;18.71;72.97
76766;BME280;65707;52.362;6.588;2023-09-07T04:41:48;102008.81;;;18.76;73.05
76766;BME280;65707;52.362;6.588;2023-09-07T04:44:15;102003.72;;;18.73;72.97
76766;BME280;65707;52.362;6.588;2023-09-07T04:46:42;102018.75;;;18.69;73.02
76766;BME280;65707;52.362;6.588;2023-09-07T04:49:10;102019.03;;;18.74;73.00
76766;BME280;65707;52.362;6.588;2023-09-07T04:51:36;102022.25;;;18.63;73.82
76766;BME280;65707;52.362;6.588;2023-09-07T04:54:03;102011.78;;;18.60;73.99
76766;BME280;65707;52.362;6.588;2023-09-07T04:56:30;102027.78;;;18.69;73.60
76766;BME280;65707;52.362;6.588;2023-09-07T04:58:57;102014.50;;;18.60;74.20
76766;BME280;65707;52.362;6.588;2023-09-07T05:01:24;102024.41;;;18.67;74.43
76766;BME280;65707;52.362;6.588;2023-09-07T05:03:50;102026.16;;;18.75;73.82
76766;BME280;65707;52.362;6.588;2023-09-07T05:06:19;102036.06;;;18.61;74.74
76766;BME280;65707;52.362;6.588;2023-09-07T05:08:48;102018.25;;;18.80;73.84
76766;BME280;65707;52.362;6.588;2023-09-07T05:11:14;102023.31;;;18.83;73.02
76766;BME280;65707;52.362;6.588;2023-09-07T05:13:41;102029.25;;;18.72;73.24
76766;BME280;65707;52.362;6.588;2023-09-07T05:16:08;102036.91;;;18.83;73.37
76766;BME280;65707;52.362;6.588;2023-09-07T05:18:35;102031.53;;;19.10;72.23
76766;BME280;65707;52.362;6.588;2023-09-07T05:21:11;102031.00;;;19.21;71.52
76766;BME280;65707;52.362;6.588;2023-09-07T05:23:40;102028.53;;;19.26;71.02
76766;BME280;65707;52.362;6.588;2023-09-07T05:26:07;102027.72;;;19.05;71.62
76766;BME280;65707;52.362;6.588;2023-09-07T05:28:34;102031.75;;;19.30;70.94
76766;BME280;65707;52.362;6.588;2023-09-07T05:31:00;102032.31;;;19.25;70.91
76766;BME280;65707;52.362;6.588;2023-09-07T05:33:27;102038.47;;;19.34;70.86
76766;BME280;65707;52.362;6.588;2023-09-07T05:35:54;102046.72;;;19.19;70.91
76766;BME280;65707;52.362;6.588;2023-09-07T05:38:21;102051.84;;;19.29;70.83
76766;BME280;65707;52.362;6.588;2023-09-07T05:40:49;102041.53;;;19.24;70.48
76766;BME280;65707;52.362;6.588;2023-09-07T05:43:19;102035.53;;;19.56;69.78
76766;BME280;65707;52.362;6.588;2023-09-07T05:45:46;102037.19;;;19.51;69.81
76766;BME280;65707;52.362;6.588;2023-09-07T05:48:13;102041.44;;;19.39;70.11
76766;BME280;65707;52.362;6.588;2023-09-07T05:50:42;102029.97;;;19.43;69.97
76766;BME280;65707;52.362;6.588;2023-09-07T05:53:09;102031.72;;;19.51;69.80
76766;BME280;65707;52.362;6.588;2023-09-07T05:55:38;102035.06;;;19.53;69.95
76766;BME280;65707;52.362;6.588;2023-09-07T05:58:07;102036.91;;;19.73;69.24
76766;BME280;65707;52.362;6.588;2023-09-07T06:00:35;102032.16;;;19.82;68.63
76766;BME280;65707;52.362;6.588;2023-09-07T06:03:04;102034.78;;;19.69;68.81
76766;BME280;65707;52.362;6.588;2023-09-07T06:05:33;102040.56;;;19.87;68.22
76766;BME280;65707;52.362;6.588;2023-09-07T06:08:00;102048.72;;;19.80;68.33
76766;BME280;65707;52.362;6.588;2023-09-07T06:10:27;102044.81;;;19.96;67.75
76766;BME280;65707;52.362;6.588;2023-09-07T06:12:55;102049.91;;;20.06;67.55
76766;BME280;65707;52.362;6.588;2023-09-07T06:15:25;102053.66;;;20.04;67.07
76766;BME280;65707;52.362;6.588;2023-09-07T06:17:52;102051.19;;;20.10;67.26
76766;BME280;65707;52.362;6.588;2023-09-07T06:20:19;102047.88;;;20.14;67.05
76766;BME280;65707;52.362;6.588;2023-09-07T06:22:46;102064.28;;;20.21;67.09
76766;BME280;65707;52.362;6.588;2023-09-07T06:25:14;102051.59;;;20.47;66.07
76766;BME280;65707;52.362;6.588;2023-09-07T06:27:41;102054.78;;;20.51;65.42
76766;BME280;65707;52.362;6.588;2023-09-07T06:30:09;102060.25;;;20.57;65.89
76766;BME280;65707;52.362;6.588;2023-09-07T06:32:37;102059.19;;;20.58;65.71
76766;BME280;65707;52.362;6.588;2023-09-07T06:35:06;102058.19;;;20.59;65.71
76766;BME280;65707;52.362;6.588;2023-09-07T06:37:38;102060.75;;;20.87;64.73
76766;BME280;65707;52.362;6.588;2023-09-07T06:40:08;102051.53;;;20.81;64.26
76766;BME280;65707;52.362;6.588;2023-09-07T06:42:36;102049.22;;;20.85;64.07
76766;BME280;65707;52.362;6.588;2023-09-07T06:45:03;102052.56;;;20.87;64.37
76766;BME280;65707;52.362;6.588;2023-09-07T06:47:31;102050.75;;;21.00;64.69
76766;BME280;65707;52.362;6.588;2023-09-07T06:49:59;102054.78;;;21.17;63.16
76766;BME280;65707;52.362;6.588;2023-09-07T06:52:28;102058.75;;;21.08;64.10
76766;BME280;65707;52.362;6.588;2023-09-07T06:54:54;102049.50;;;21.22;62.50
76766;BME280;65707;52.362;6.588;2023-09-07T06:57:21;102059.22;;;21.31;62.49
76766;BME280;65707;52.362;6.588;2023-09-07T06:59:48;102055.84;;;21.36;62.04
76766;BME280;65707;52.362;6.588;2023-09-07T07:02:26;102064.25;;;21.34;63.02
76766;BME280;65707;52.362;6.588;2023-09-07T07:04:52;102052.28;;;21.55;61.79
76766;BME280;65707;52.362;6.588;2023-09-07T07:07:23;102048.91;;;21.46;62.01
76766;BME280;65707;52.362;6.588;2023-09-07T07:09:52;102053.31;;;21.74;60.55
76766;BME280;65707;52.362;6.588;2023-09-07T07:12:19;102048.88;;;21.73;61.04
76766;BME280;65707;52.362;6.588;2023-09-07T07:14:46;102065.91;;;21.68;61.86
76766;BME280;65707;52.362;6.588;2023-09-07T07:17:13;102056.47;;;21.84;60.50
76766;BME280;65707;52.362;6.588;2023-09-07T07:19:39;102063.41;;;21.93;60.96
76766;BME280;65707;52.362;6.588;2023-09-07T07:22:08;102059.19;;;21.97;61.31
76766;BME280;65707;52.362;6.588;2023-09-07T07:24:36;102060.44;;;22.01;60.23
76766;BME280;65707;52.362;6.588;2023-09-07T07:27:03;102049.88;;;22.24;59.72
76766;BME280;65707;52.362;6.588;2023-09-07T07:29:30;102047.34;;;22.16;60.27
76766;BME280;65707;52.362;6.588;2023-09-07T07:31:57;102052.38;;;22.25;60.29
76766;BME280;65707;52.362;6.588;2023-09-07T07:34:23;102053.56;;;22.55;59.81
76766;BME280;65707;52.362;6.588;2023-09-07T07:36:50;102037.28;;;22.67;58.17
76766;BME280;65707;52.362;6.588;2023-09-07T07:39:17;102045.66;;;22.72;58.83
76766;BME280;65707;52.362;6.588;2023-09-07T07:41:45;102047.09;;;22.81;59.29
76766;BME280;65707;52.362;6.588;2023-09-07T07:44:12;102043.88;;;22.90;58.76
76766;BME280;65707;52.362;6.588;2023-09-07T07:46:39;102037.22;;;23.11;58.09
76766;BME280;65707;52.362;6.588;2023-09-07T07:49:06;102035.63;;;23.28;57.49
76766;BME280;65707;52.362;6.588;2023-09-07T07:51:32;102041.63;;;23.43;58.02
76766;BME280;65707;52.362;6.588;2023-09-07T07:53:59;102038.47;;;23.64;56.94
76766;BME280;65707;52.362;6.588;2023-09-07T07:56:26;102035.53;;;24.08;55.65
76766;BME280;65707;52.362;6.588;2023-09-07T07:58:54;102040.09;;;24.51;55.29
76766;BME280;65707;52.362;6.588;2023-09-07T08:01:21;102034.63;;;25.10;53.99
76766;BME280;65707;52.362;6.588;2023-09-07T08:03:48;102029.81;;;25.92;52.01
76766;BME280;65707;52.362;6.588;2023-09-07T08:06:15;102009.50;;;26.84;48.61
76766;BME280;65707;52.362;6.588;2023-09-07T08:08:41;101997.53;;;27.57;46.27
76766;BME280;65707;52.362;6.588;2023-09-07T08:11:08;101998.41;;;28.17;44.88
76766;BME280;65707;52.362;6.588;2023-09-07T08:13:35;102003.50;;;28.68;43.80
76766;BME280;65707;52.362;6.588;2023-09-07T08:16:04;102004.22;;;29.12;42.89
76766;BME280;65707;52.362;6.588;2023-09-07T08:18:33;101992.44;;;29.99;40.34
76766;BME280;65707;52.362;6.588;2023-09-07T08:21:00;102003.13;;;30.28;40.14
76766;BME280;65707;52.362;6.588;2023-09-07T08:23:27;101996.34;;;30.03;40.74
76766;BME280;65707;52.362;6.588;2023-09-07T08:25:54;102006.03;;;30.06;40.31
76766;BME280;65707;52.362;6.588;2023-09-07T08:28:21;102000.56;;;30.88;39.52
76766;BME280;65707;52.362;6.588;2023-09-07T08:30:49;102002.50;;;30.97;37.74
76766;BME280;65707;52.362;6.588;2023-09-07T08:33:20;101994.53;;;31.31;37.85
76766;BME280;65707;52.362;6.588;2023-09-07T08:35:51;101999.47;;;31.39;38.74
76766;BME280;65707;52.362;6.588;2023-09-07T08:38:20;101992.53;;;31.61;37.86
76766;BME280;65707;52.362;6.588;2023-09-07T08:40:51;101994.78;;;32.53;36.86
76766;BME280;65707;52.362;6.588;2023-09-07T08:43:20;101996.97;;;32.56;36.44
76766;BME280;65707;52.362;6.588;2023-09-07T08:45:51;101994.78;;;32.53;36.01
76766;BME280;65707;52.362;6.588;2023-09-07T08:48:29;101991.56;;;33.14;35.08
76766;BME280;65707;52.362;6.588;2023-09-07T08:50:57;101992.63;;;32.89;35.30
76766;BME280;65707;52.362;6.588;2023-09-07T08:53:24;101987.19;;;33.41;34.36
76766;BME280;65707;52.362;6.588;2023-09-07T08:55:52;101978.31;;;33.39;34.27
76766;BME280;65707;52.362;6.588;2023-09-07T08:58:19;101994.91;;;33.16;35.15
76766;BME280;65707;52.362;6.588;2023-09-07T09:00:48;101977.78;;;34.13;32.00
76766;BME280;65707;52.362;6.588;2023-09-07T09:03:17;101985.50;;;34.44;33.06
76766;BME280;65707;52.362;6.588;2023-09-07T09:05:46;101982.34;;;34.88;31.96
76766;BME280;65707;52.362;6.588;2023-09-07T09:08:17;101982.66;;;34.26;33.25
76766;BME280;65707;52.362;6.588;2023-09-07T09:10:48;101968.41;;;35.52;31.54
76766;BME280;65707;52.362;6.588;2023-09-07T09:13:15;101983.50;;;35.19;31.84
76766;BME280;65707;52.362;6.588;2023-09-07T09:15:42;101988.34;;;35.14;32.24
76766;BME280;65707;52.362;6.588;2023-09-07T09:18:10;101982.06;;;35.40;31.83
76766;BME280;65707;52.362;6.588;2023-09-07T09:20:38;101984.28;;;34.88;32.66
76766;BME280;65707;52.362;6.588;2023-09-07T09:23:06;101984.06;;;35.03;32.43
76766;BME280;65707;52.362;6.588;2023-09-07T09:25:33;101983.91;;;34.76;32.48
76766;BME280;65707;52.362;6.588;2023-09-07T09:28:00;101979.31;;;35.67;31.69
76766;BME280;65707;52.362;6.588;2023-09-07T09:30:27;101965.34;;;35.81;31.15
76766;BME280;65707;52.362;6.588;2023-09-07T09:32:53;101969.41;;;36.43;30.53
76766;BME280;65707;52.362;6.588;2023-09-07T09:35:21;101965.72;;;36.56;29.28
76766;BME280;65707;52.362;6.588;2023-09-07T09:37:48;101972.94;;;35.94;30.77
76766;BME280;65707;52.362;6.588;2023-09-07T09:40:17;101973.03;;;36.03;31.06
76766;BME280;65707;52.362;6.588;2023-09-07T09:42:46;101955.00;;;36.49;29.58
76766;BME280;65707;52.362;6.588;2023-09-07T09:45:19;101953.16;;;37.02;28.82
76766;BME280;65707;52.362;6.588;2023-09-07T09:47:49;101952.56;;;37.36;28.85
76766;BME280;65707;52.362;6.588;2023-09-07T09:50:18;101943.38;;;38.22;26.74
76766;BME280;65707;52.362;6.588;2023-09-07T09:52:45;101948.72;;;37.63;27.84
76766;BME280;65707;52.362;6.588;2023-09-07T09:55:16;101942.75;;;37.86;26.51
76766;BME280;65707;52.362;6.588;2023-09-07T09:57:44;101935.28;;;38.12;26.66
76766;BME280;65707;52.362;6.588;2023-09-07T10:00:12;101941.09;;;38.41;26.64
76766;BME280;65707;52.362;6.588;2023-09-07T10:02:55;101932.25;;;38.56;25.55
76766;BME280;65707;52.362;6.588;2023-09-07T10:05:24;101929.06;;;38.41;25.05
76766;BME280;65707;52.362;6.588;2023-09-07T10:07:52;101929.78;;;38.07;26.04
76766;BME280;65707;52.362;6.588;2023-09-07T10:10:19;101925.72;;;38.30;24.92
76766;BME280;65707;52.362;6.588;2023-09-07T10:12:53;101916.56;;;37.91;25.26
76766;BME280;65707;52.362;6.588;2023-09-07T10:15:21;101921.22;;;37.65;25.31
76766;BME280;65707;52.362;6.588;2023-09-07T10:17:48;101922.66;;;37.54;26.32
76766;BME280;65707;52.362;6.588;2023-09-07T10:20:19;101919.06;;;37.62;26.14
76766;BME280;65707;52.362;6.588;2023-09-07T10:22:49;101910.91;;;38.55;25.35
76766;BME280;65707;52.362;6.588;2023-09-07T10:25:21;101917.88;;;38.84;24.16
76766;BME280;65707;52.362;6.588;2023-09-07T10:27:49;101910.91;;;38.55;25.51
76766;BME280;65707;52.362;6.588;2023-09-07T10:30:15;101918.97;;;38.40;25.78
76766;BME280;65707;52.362;6.588;2023-09-07T10:32:45;101910.69;;;39.20;25.03
76766;BME280;65707;52.362;6.588;2023-09-07T10:35:13;101901.97;;;39.59;24.82
76766;BME280;65707;52.362;6.588;2023-09-07T10:37:40;101906.50;;;39.52;24.15
76766;BME280;65707;52.362;6.588;2023-09-07T10:40:10;101897.16;;;39.97;23.73
76766;BME280;65707;52.362;6.588;2023-09-07T10:42:40;101898.72;;;39.40;23.80
76766;BME280;65707;52.362;6.588;2023-09-07T10:45:10;101907.34;;;39.35;24.13
76766;BME280;65707;52.362;6.588;2023-09-07T10:47:41;101899.72;;;39.36;24.20
76766;BME280;65707;52.362;6.588;2023-09-07T10:50:08;101901.63;;;39.15;25.34
76766;BME280;65707;52.362;6.588;2023-09-07T10:52:36;101899.91;;;39.48;24.67
76766;BME280;65707;52.362;6.588;2023-09-07T10:55:06;101883.66;;;39.91;23.91
76766;BME280;65707;52.362;6.588;2023-09-07T10:57:42;101882.00;;;40.40;23.18
76766;BME280;65707;52.362;6.588;2023-09-07T11:00:13;101879.13;;;39.98;23.36
76766;BME280;65707;52.362;6.588;2023-09-07T11:02:41;101878.22;;;39.86;23.21
76766;BME280;65707;52.362;6.588;2023-09-07T11:05:08;101874.56;;;40.56;22.37
76766;BME280;65707;52.362;6.588;2023-09-07T11:07:36;101865.22;;;40.96;22.27
76766;BME280;65707;52.362;6.588;2023-09-07T11:10:05;101881.34;;;41.08;22.66
76766;BME280;65707;52.362;6.588;2023-09-07T11:12:36;101869.31;;;40.87;20.71
76766;BME280;65707;52.362;6.588;2023-09-07T11:15:08;101869.88;;;40.80;21.03
76766;BME280;65707;52.362;6.588;2023-09-07T11:17:37;101863.19;;;41.17;21.57
76766;BME280;65707;52.362;6.588;2023-09-07T11:20:06;101860.31;;;41.05;20.31
76766;BME280;65707;52.362;6.588;2023-09-07T11:22:33;101852.28;;;40.83;20.73
76766;BME280;65707;52.362;6.588;2023-09-07T11:25:00;101865.19;;;40.84;20.79
76766;BME280;65707;52.362;6.588;2023-09-07T11:27:29;101868.75;;;40.93;20.63
76766;BME280;65707;52.362;6.588;2023-09-07T11:29:56;101850.56;;;41.03;20.30
76766;BME280;65707;52.362;6.588;2023-09-07T11:32:33;101846.66;;;41.76;20.03
76766;BME280;65707;52.362;6.588;2023-09-07T11:35:00;101848.28;;;41.17;21.03
76766;BME280;65707;52.362;6.588;2023-09-07T11:37:26;101849.69;;;41.23;20.39
76766;BME280;65707;52.362;6.588;2023-09-07T11:39:53;101848.53;;;41.36;20.72
76766;BME280;65707;52.362;6.588;2023-09-07T11:42:20;101858.75;;;40.96;20.64
76766;BME280;65707;52.362;6.588;2023-09-07T11:44:46;101858.88;;;40.99;20.77
76766;BME280;65707;52.362;6.588;2023-09-07T11:47:13;101843.94;;;41.43;20.62
76766;BME280;65707;52.362;6.588;2023-09-07T11:49:41;101845.16;;;41.55;19.30
76766;BME280;65707;52.362;6.588;2023-09-07T11:52:07;101839.13;;;41.44;20.31
76766;BME280;65707;52.362;6.588;2023-09-07T11:54:34;101840.06;;;41.48;19.79
76766;BME280;65707;52.362;6.588;2023-09-07T11:57:01;101838.53;;;41.14;19.78
76766;BME280;65707;52.362;6.588;2023-09-07T11:59:27;101840.56;;;40.81;20.72
76766;BME280;65707;52.362;6.588;2023-09-07T12:01:54;101834.69;;;40.86;20.75
76766;BME280;65707;52.362;6.588;2023-09-07T12:04:21;101825.38;;;41.18;19.68
76766;BME280;65707;52.362;6.588;2023-09-07T12:06:49;101828.72;;;41.57;20.92
76766;BME280;65707;52.362;6.588;2023-09-07T12:09:16;101819.81;;;42.06;18.93
76766;BME280;65707;52.362;6.588;2023-09-07T12:11:42;101813.88;;;41.84;19.57
76766;BME280;65707;52.362;6.588;2023-09-07T12:14:09;101810.94;;;41.44;19.79
76766;BME280;65707;52.362;6.588;2023-09-07T12:16:36;101805.84;;;41.86;19.23
76766;BME280;65707;52.362;6.588;2023-09-07T12:19:03;101798.34;;;41.90;19.22
76766;BME280;65707;52.362;6.588;2023-09-07T12:21:29;101805.19;;;41.77;19.62
76766;BME280;65707;52.362;6.588;2023-09-07T12:23:57;101805.09;;;41.61;19.38
76766;BME280;65707;52.362;6.588;2023-09-07T12:26:24;101808.84;;;41.53;19.92
76766;BME280;65707;52.362;6.588;2023-09-07T12:28:51;101802.38;;;41.53;19.97
76766;BME280;65707;52.362;6.588;2023-09-07T12:31:17;101798.47;;;41.81;19.36
76766;BME280;65707;52.362;6.588;2023-09-07T12:33:46;101808.00;;;41.77;19.63
76766;BME280;65707;52.362;6.588;2023-09-07T12:36:13;101804.28;;;42.12;19.54
76766;BME280;65707;52.362;6.588;2023-09-07T12:38:39;101808.16;;;42.20;19.04
76766;BME280;65707;52.362;6.588;2023-09-07T12:41:07;101807.47;;;42.11;19.26
76766;BME280;65707;52.362;6.588;2023-09-07T12:43:34;101800.50;;;42.20;19.08
76766;BME280;65707;52.362;6.588;2023-09-07T12:46:00;101805.41;;;42.23;19.74
76766;BME280;65707;52.362;6.588;2023-09-07T12:48:27;101799.09;;;42.54;18.69
76766;BME280;65707;52.362;6.588;2023-09-07T12:50:55;101792.94;;;42.36;18.81
76766;BME280;65707;52.362;6.588;2023-09-07T12:53:22;101790.88;;;42.09;18.58